Time;durP1;ratioP1;P1;durP2;ratioP2;P2;SDS_P1;SDS_P2;PMS_P1;PMS_P2;Temp;Humidity;BMP_temperature;BMP_pressure;BME280_temperature;BME280_humidity;BME280_pressure;Samples;Min_cycle;Max_cycle;Signal;HPM_P1;HPM_P2
2022/05/20 00:00:16;;;;;;;9.53;7.30;;;18.20;99.90;;;;;;5072312;28;20469;-66
2022/05/20 00:02:43;;;;;;;9.27;7.30;;;18.10;99.90;;;;;;5072812;28;20732;-66
2022/05/20 00:05:09;;;;;;;10.67;7.57;;;18.00;99.90;;;;;;5072438;28;20529;-67
2022/05/20 00:07:36;;;;;;;7.83;7.13;;;17.90;99.90;;;;;;5072669;28;20450;-67
2022/05/20 00:10:04;;;;;;;10.07;7.80;;;17.80;99.90;;;;;;5072370;28;20459;-67
2022/05/20 00:12:31;;;;;;;10.67;8.57;;;17.70;99.90;;;;;;5072650;28;20806;-67
2022/05/20 00:14:59;;;;;;;9.00;6.47;;;17.70;99.90;;;;;;5072431;28;20443;-67
2022/05/20 00:17:26;;;;;;;8.47;7.67;;;17.60;99.90;;;;;;5072479;28;20466;-67
2022/05/20 00:19:53;;;;;;;8.30;7.13;;;17.60;99.90;;;;;;5071933;28;21000;-66
2022/05/20 00:22:20;;;;;;;9.90;7.70;;;17.50;99.90;;;;;;5072432;28;20451;-67
2022/05/20 00:27:31;;;;;;;10.60;7.73;;;17.50;99.90;;;;;;5072580;28;20441;-67
2022/05/20 00:29:59;;;;;;;9.60;8.70;;;17.50;99.90;;;;;;5069294;28;20461;-67
2022/05/20 00:32:26;;;;;;;8.73;7.80;;;17.40;99.90;;;;;;5068679;28;20943;-67
2022/05/20 00:34:53;;;;;;;11.40;7.70;;;17.40;99.90;;;;;;5077419;28;20522;-67
2022/05/20 00:37:20;;;;;;;8.73;7.90;;;17.30;99.90;;;;;;5071918;28;20467;-67
2022/05/20 00:39:46;;;;;;;10.30;7.90;;;17.30;99.90;;;;;;5071953;28;20539;-65
2022/05/20 00:42:15;;;;;;;13.03;8.57;;;17.30;99.90;;;;;;5072183;28;20458;-67
2022/05/20 00:44:42;;;;;;;10.00;9.00;;;17.30;99.90;;;;;;5072128;28;20435;-67
2022/05/20 00:47:12;;;;;;;11.37;10.20;;;17.30;99.90;;;;;;5071536;28;20447;-67
2022/05/20 00:49:42;;;;;;;9.60;8.07;;;17.20;99.90;;;;;;5071940;28;20463;-67
2022/05/20 00:52:11;;;;;;;8.70;7.80;;;17.20;99.90;;;;;;5071797;28;20546;-67
2022/05/20 00:54:43;;;;;;;9.77;8.77;;;17.20;99.90;;;;;;5072273;28;20439;-66
2022/05/20 00:57:13;;;;;;;8.53;7.60;;;17.20;99.90;;;;;;5072107;28;20498;-66
2022/05/20 00:59:43;;;;;;;8.93;7.43;;;17.20;99.90;;;;;;5071766;28;20545;-65
2022/05/20 01:02:18;;;;;;;10.03;9.07;;;17.20;99.90;;;;;;5071853;28;20482;-66
2022/05/20 01:04:46;;;;;;;8.73;7.83;;;17.10;99.90;;;;;;5071816;28;20521;-66
2022/05/20 01:07:16;;;;;;;9.33;8.50;;;17.00;99.90;;;;;;5071691;28;20435;-66
2022/05/20 01:09:42;;;;;;;10.13;7.90;;;17.00;99.90;;;;;;5071273;28;20984;-67
2022/05/20 01:12:10;;;;;;;10.83;7.77;;;16.90;99.90;;;;;;5071305;28;20464;-66
2022/05/20 01:14:37;;;;;;;8.80;7.97;;;16.90;99.90;;;;;;5071580;28;20435;-65
2022/05/20 01:17:04;;;;;;;9.87;8.87;;;16.90;99.90;;;;;;5071425;28;20479;-66
2022/05/20 01:19:36;;;;;;;10.37;8.63;;;16.80;99.90;;;;;;5071081;28;20455;-66
2022/05/20 01:22:05;;;;;;;10.57;9.37;;;16.70;99.90;;;;;;5071078;28;20559;-66
2022/05/20 01:24:34;;;;;;;9.27;8.47;;;16.80;99.90;;;;;;5071132;28;20447;-66
2022/05/20 01:27:01;;;;;;;10.30;9.30;;;16.70;99.90;;;;;;5071396;28;20485;-66
2022/05/20 01:29:28;;;;;;;11.17;9.53;;;16.70;99.90;;;;;;5070926;28;21051;-65
2022/05/20 01:31:54;;;;;;;11.00;8.47;;;16.70;99.90;;;;;;5071215;28;20442;-65
2022/05/20 01:34:21;;;;;;;9.50;8.50;;;16.70;99.90;;;;;;5071316;28;20439;-66
2022/05/20 01:36:48;;;;;;;10.50;9.03;;;16.70;99.90;;;;;;5071809;28;20478;-66
2022/05/20 01:39:16;;;;;;;9.87;8.90;;;16.60;99.90;;;;;;5071158;28;20986;-66
2022/05/20 01:41:51;;;;;;;10.70;9.00;;;16.60;99.90;;;;;;5070775;28;20445;-66
2022/05/20 01:44:23;;;;;;;11.27;10.13;;;16.70;99.90;;;;;;5071024;28;21218;-65
2022/05/20 01:46:55;;;;;;;10.40;8.87;;;16.60;99.90;;;;;;5070684;28;20440;-65
2022/05/20 01:49:33;;;;;;;10.47;9.43;;;16.60;99.90;;;;;;5070564;28;20455;-66
2022/05/20 01:52:07;;;;;;;9.37;8.33;;;16.60;99.90;;;;;;5070378;28;20442;-66
2022/05/20 01:54:46;;;;;;;9.17;8.37;;;16.60;99.90;;;;;;5070595;28;20526;-66
2022/05/20 01:57:19;;;;;;;9.03;8.23;;;16.60;99.90;;;;;;5066676;28;20481;-66
2022/05/20 01:59:50;;;;;;;10.50;9.17;;;16.50;99.90;;;;;;5069943;28;20462;-65
2022/05/20 02:02:24;;;;;;;10.73;9.63;;;16.40;99.90;;;;;;5076772;28;20445;-65
2022/05/20 02:04:57;;;;;;;12.30;10.03;;;16.40;99.90;;;;;;5053858;28;20821;-65
2022/05/20 02:07:28;;;;;;;12.13;10.23;;;16.50;99.90;;;;;;5070223;28;20463;-65
2022/05/20 02:10:01;;;;;;;14.63;10.60;;;16.40;99.90;;;;;;5070000;28;20469;-65
2022/05/20 02:12:36;;;;;;;11.10;9.57;;;16.40;99.90;;;;;;5070172;28;20520;-65
2022/05/20 02:15:08;;;;;;;10.90;9.80;;;16.40;99.90;;;;;;5070240;28;20962;-65
2022/05/20 02:17:37;;;;;;;11.00;9.90;;;16.40;99.90;;;;;;5070032;28;20483;-65
2022/05/20 02:20:10;;;;;;;11.63;10.43;;;16.40;99.90;;;;;;5069865;28;20451;-65
2022/05/20 02:22:41;;;;;;;12.93;11.67;;;16.30;99.90;;;;;;5069815;28;20435;-65
2022/05/20 02:25:12;;;;;;;13.63;11.00;;;16.20;99.90;;;;;;5070259;28;20435;-66
2022/05/20 02:27:44;;;;;;;12.83;10.30;;;16.30;99.90;;;;;;5070146;28;20518;-65
2022/05/20 02:30:14;;;;;;;11.60;10.50;;;16.40;99.90;;;;;;5069518;28;20455;-65
2022/05/20 02:32:47;;;;;;;11.73;10.63;;;16.30;99.90;;;;;;5069934;28;20813;-65
2022/05/20 02:35:14;;;;;;;12.10;10.80;;;16.30;99.90;;;;;;5069686;28;20805;-66
2022/05/20 02:37:41;;;;;;;13.27;11.33;;;16.20;99.90;;;;;;5069946;28;20511;-65
2022/05/20 02:40:10;;;;;;;11.70;10.60;;;16.20;99.90;;;;;;5069548;28;20465;-66
2022/05/20 02:42:37;;;;;;;11.70;9.90;;;16.20;99.90;;;;;;5069860;28;20437;-66
2022/05/20 02:45:07;;;;;;;13.80;10.20;;;16.20;99.90;;;;;;5069555;28;21016;-65
2022/05/20 02:47:36;;;;;;;11.57;10.10;;;16.30;99.90;;;;;;5069809;28;20914;-66
2022/05/20 02:50:06;;;;;;;11.73;10.53;;;16.30;99.90;;;;;;5069128;28;20469;-65
2022/05/20 02:52:34;;;;;;;11.00;9.90;;;16.20;99.90;;;;;;5069633;28;20449;-66
2022/05/20 02:55:01;;;;;;;13.13;10.57;;;16.20;99.90;;;;;;5069693;28;21054;-66
2022/05/20 02:57:28;;;;;;;12.10;10.83;;;16.20;99.90;;;;;;5069649;28;20480;-65
2022/05/20 03:05:25;;;;;;;11.70;10.50;;;16.30;99.90;;;;;;5069553;28;20437;-65
2022/05/20 03:07:52;;;;;;;12.27;10.97;;;16.20;99.90;;;;;;5069860;28;20438;-66
2022/05/20 03:10:19;;;;;;;12.60;10.90;;;16.30;99.90;;;;;;5074834;28;20491;-66
2022/05/20 03:12:46;;;;;;;11.30;10.20;;;16.40;99.90;;;;;;5076096;28;20447;-66
2022/05/20 03:15:16;;;;;;;11.33;10.03;;;16.30;99.90;;;;;;5076384;28;20439;-65
2022/05/20 03:17:45;;;;;;;12.63;11.43;;;16.30;99.90;;;;;;5076136;28;20482;-66
2022/05/20 03:20:12;;;;;;;11.23;10.13;;;16.30;99.90;;;;;;5075777;28;20565;-66
2022/05/20 03:22:40;;;;;;;14.00;10.50;;;16.30;99.90;;;;;;5076103;28;20435;-65
2022/05/20 03:25:08;;;;;;;12.10;10.80;;;16.30;99.90;;;;;;5076032;28;20441;-66
2022/05/20 03:27:35;;;;;;;12.47;10.97;;;16.20;99.90;;;;;;5076202;28;20462;-66
2022/05/20 03:30:01;;;;;;;12.70;11.40;;;16.30;99.90;;;;;;5075747;28;20545;-65
2022/05/20 03:32:28;;;;;;;11.23;10.10;;;16.30;99.90;;;;;;5075928;28;20963;-65
2022/05/20 03:34:57;;;;;;;14.83;12.33;;;16.30;99.90;;;;;;5076382;28;20517;-66
2022/05/20 03:37:25;;;;;;;13.00;11.60;;;16.30;99.90;;;;;;5076062;28;20992;-65
2022/05/20 03:39:52;;;;;;;11.33;10.33;;;16.40;99.90;;;;;;5075743;28;20462;-66
2022/05/20 03:42:19;;;;;;;15.63;12.03;;;16.40;99.90;;;;;;5075960;28;20924;-67
2022/05/20 03:44:46;;;;;;;11.50;10.43;;;16.50;99.90;;;;;;5076146;28;20441;-65
2022/05/20 03:47:12;;;;;;;11.60;10.40;;;16.50;99.90;;;;;;5075774;28;21183;-66
2022/05/20 03:49:42;;;;;;;12.73;11.53;;;16.50;99.90;;;;;;5075915;28;20473;-65
2022/05/20 03:52:11;;;;;;;15.27;12.37;;;16.50;99.90;;;;;;5075362;28;20534;-65
2022/05/20 03:54:38;;;;;;;11.57;10.30;;;16.60;99.90;;;;;;5075332;28;20439;-65
2022/05/20 03:57:06;;;;;;;13.50;10.53;;;16.60;99.90;;;;;;5076003;28;20516;-65
2022/05/20 03:59:36;;;;;;;12.10;10.73;;;16.50;99.90;;;;;;5075498;28;20454;-65
2022/05/20 04:02:05;;;;;;;13.03;11.50;;;16.60;99.90;;;;;;5075361;28;20442;-66
2022/05/20 04:04:36;;;;;;;12.93;10.13;;;16.60;99.90;;;;;;5075311;28;20447;-65
2022/05/20 04:07:05;;;;;;;11.37;10.10;;;16.70;99.90;;;;;;5075914;28;20431;-66
2022/05/20 04:09:34;;;;;;;11.57;10.47;;;16.70;99.90;;;;;;5075701;28;20901;-66
2022/05/20 04:12:04;;;;;;;11.83;10.60;;;16.80;99.90;;;;;;5075362;28;20529;-66
2022/05/20 04:14:32;;;;;;;11.33;9.50;;;16.80;99.90;;;;;;5075454;28;20545;-66
2022/05/20 04:16:59;;;;;;;13.07;11.70;;;16.70;99.90;;;;;;5075549;28;20928;-66
2022/05/20 04:19:28;;;;;;;11.67;10.20;;;16.70;99.90;;;;;;5075469;28;20486;-66
2022/05/20 04:21:57;;;;;;;12.70;10.73;;;16.70;99.90;;;;;;5071681;28;20435;-65
2022/05/20 04:24:24;;;;;;;10.47;9.47;;;16.70;99.90;;;;;;5072455;28;20435;-66
2022/05/20 04:26:52;;;;;;;12.83;11.63;;;16.70;99.90;;;;;;5072622;28;20443;-66
2022/05/20 04:29:19;;;;;;;11.40;9.87;;;16.70;99.90;;;;;;5072165;28;20482;-66
2022/05/20 04:31:48;;;;;;;15.43;10.37;;;16.70;99.90;;;;;;5072136;28;20799;-66
2022/05/20 04:34:15;;;;;;;11.50;10.27;;;16.70;99.90;;;;;;5072307;28;20534;-66
2022/05/20 04:36:42;;;;;;;11.80;10.60;;;16.60;99.90;;;;;;5071846;28;20926;-66
2022/05/20 04:39:09;;;;;;;11.07;10.07;;;16.60;99.90;;;;;;5070813;28;20483;-66
2022/05/20 04:47:11;;;;;;;12.20;10.97;;;16.70;99.90;;;;;;5071813;28;20419;-64
2022/05/20 04:49:41;;;;;;;12.03;10.43;;;16.70;99.90;;;;;;5071872;28;20466;-65
2022/05/20 04:52:07;;;;;;;13.30;10.83;;;16.80;99.90;;;;;;5071447;28;20990;-66
2022/05/20 04:54:52;;;;;;;12.87;11.50;;;16.80;99.90;;;;;;5071895;28;20529;-70
2022/05/20 04:57:26;;;;;;;10.90;9.80;;;16.90;99.90;;;;;;5070910;28;20461;-67
2022/05/20 04:59:55;;;;;;;12.00;10.80;;;17.00;99.90;;;;;;5071105;28;20619;-68
2022/05/20 05:02:22;;;;;;;12.77;11.60;;;17.00;99.90;;;;;;5068498;28;20466;-66
2022/05/20 05:04:49;;;;;;;11.03;9.97;;;17.10;99.90;;;;;;5071281;28;20989;-66
2022/05/20 05:07:16;;;;;;;11.70;10.60;;;17.10;99.90;;;;;;5071113;28;20435;-67
2022/05/20 05:09:44;;;;;;;11.20;10.10;;;17.30;99.90;;;;;;5071153;28;21007;-67
2022/05/20 05:12:12;;;;;;;10.47;9.30;;;17.40;99.90;;;;;;5071314;28;20448;-66
2022/05/20 05:14:40;;;;;;;11.20;9.93;;;17.50;99.90;;;;;;5071501;28;20455;-66
2022/05/20 05:17:10;;;;;;;11.87;10.40;;;17.60;99.90;;;;;;5071392;28;20447;-67
2022/05/20 05:19:38;;;;;;;9.90;8.67;;;17.70;99.90;;;;;;5069853;28;20494;-67
2022/05/20 05:22:06;;;;;;;10.90;9.80;;;17.70;99.90;;;;;;5069662;28;20851;-64
2022/05/20 05:24:34;;;;;;;11.20;8.97;;;17.80;99.90;;;;;;5069783;28;20447;-67
2022/05/20 05:27:01;;;;;;;10.07;9.07;;;18.00;99.90;;;;;;5069420;28;20454;-67
2022/05/20 05:29:28;;;;;;;10.20;9.13;;;18.10;99.90;;;;;;5069778;28;20463;-69
2022/05/20 05:31:55;;;;;;;9.47;8.60;;;18.30;99.90;;;;;;5070216;28;20443;-67
2022/05/20 05:34:23;;;;;;;9.90;8.90;;;18.40;99.90;;;;;;5069505;28;20458;-68
2022/05/20 05:36:50;;;;;;;11.93;8.90;;;18.60;99.90;;;;;;5071236;28;20447;-68
2022/05/20 05:39:17;;;;;;;12.70;8.60;;;18.60;99.90;;;;;;5071435;28;20862;-68
2022/05/20 05:41:45;;;;;;;11.90;8.93;;;18.80;99.90;;;;;;5070917;28;20463;-68
2022/05/20 05:44:12;;;;;;;10.23;9.33;;;18.90;99.90;;;;;;5070937;28;20541;-68
2022/05/20 05:46:38;;;;;;;11.43;9.60;;;19.10;99.90;;;;;;5072311;28;20443;-68
2022/05/20 05:49:07;;;;;;;9.53;8.60;;;19.20;99.90;;;;;;5070591;28;20459;-68
2022/05/20 05:51:36;;;;;;;8.87;7.93;;;19.20;99.90;;;;;;5070287;28;20455;-67
2022/05/20 05:54:02;;;;;;;10.03;9.03;;;19.30;99.90;;;;;;5070804;28;20447;-68
2022/05/20 05:56:29;;;;;;;10.00;9.00;;;19.50;99.90;;;;;;5070772;28;20451;-68
2022/05/20 05:58:57;;;;;;;10.20;9.30;;;19.60;99.90;;;;;;5070628;28;20487;-67
2022/05/20 06:01:24;;;;;;;9.47;8.57;;;19.60;99.90;;;;;;5070136;28;20462;-67
2022/05/20 06:03:50;;;;;;;9.37;8.50;;;19.80;99.90;;;;;;5070459;28;20469;-67
2022/05/20 06:06:17;;;;;;;9.63;8.00;;;19.90;99.90;;;;;;5070428;28;20546;-67
2022/05/20 06:08:45;;;;;;;10.50;9.50;;;20.00;99.90;;;;;;5070550;28;20466;-68
2022/05/20 06:11:13;;;;;;;9.07;8.03;;;20.10;99.90;;;;;;5070266;28;20577;-67
2022/05/20 06:13:40;;;;;;;9.43;8.50;;;20.20;99.90;;;;;;5070436;28;20813;-67
2022/05/20 06:16:08;;;;;;;8.03;7.23;;;20.30;99.90;;;;;;5070399;28;20461;-67
2022/05/20 06:18:34;;;;;;;10.13;7.13;;;20.30;99.90;;;;;;5070069;28;20573;-67
2022/05/20 06:21:04;;;;;;;8.67;7.20;;;20.40;99.90;;;;;;5070286;28;20447;-67
2022/05/20 06:23:31;;;;;;;7.67;6.90;;;20.50;99.90;;;;;;5070331;28;20944;-67
2022/05/20 06:26:00;;;;;;;7.90;7.00;;;20.50;99.90;;;;;;5070550;28;20447;-67
2022/05/20 06:28:26;;;;;;;9.33;7.60;;;20.60;99.90;;;;;;5070267;28;20824;-67
2022/05/20 06:30:54;;;;;;;8.33;7.00;;;20.70;99.90;;;;;;5069886;28;20447;-67
2022/05/20 06:33:21;;;;;;;9.50;7.30;;;20.80;99.90;;;;;;5070446;28;20455;-68
2022/05/20 06:41:19;;;;;;;8.43;6.70;;;21.30;99.90;;;;;;5068498;28;20431;-68
2022/05/20 06:43:46;;;;;;;7.60;6.87;;;21.40;99.90;;;;;;5068232;28;20450;-68
2022/05/20 06:46:14;;;;;;;8.63;6.50;;;21.60;99.90;;;;;;5069492;28;20816;-67
2022/05/20 06:48:44;;;;;;;8.33;6.13;;;21.60;99.90;;;;;;5069694;28;20553;-67
2022/05/20 06:51:12;;;;;;;8.50;7.23;;;21.80;99.90;;;;;;5069710;28;20531;-67
2022/05/20 06:53:39;;;;;;;9.60;6.63;;;21.90;99.90;;;;;;5069841;28;20455;-67
2022/05/20 06:56:06;;;;;;;8.83;6.10;;;22.00;99.90;;;;;;5070021;28;20957;-67
2022/05/20 06:58:35;;;;;;;7.57;6.77;;;22.00;99.90;;;;;;5070219;28;21200;-67
2022/05/20 07:01:03;;;;;;;6.60;5.63;;;22.20;99.90;;;;;;5069357;28;20466;-67
2022/05/20 07:03:29;;;;;;;8.10;7.30;;;22.30;99.90;;;;;;5064158;28;20454;-67
2022/05/20 07:05:56;;;;;;;8.20;6.77;;;22.50;99.90;;;;;;5069363;28;20443;-67
2022/05/20 07:08:24;;;;;;;6.90;6.30;;;22.60;99.90;;;;;;5069426;28;20547;-66
2022/05/20 07:10:51;;;;;;;6.97;6.13;;;22.70;99.90;;;;;;5069120;28;20464;-66
2022/05/20 07:13:18;;;;;;;7.50;6.63;;;22.90;99.90;;;;;;5069767;28;20450;-67
2022/05/20 07:15:46;;;;;;;7.40;6.10;;;23.00;99.90;;;;;;5069588;28;20451;-67
2022/05/20 07:18:13;;;;;;;8.33;6.23;;;23.10;99.90;;;;;;5069430;28;20453;-66
2022/05/20 07:20:40;;;;;;;7.20;6.50;;;23.10;99.90;;;;;;5064120;28;20459;-67
2022/05/20 07:23:06;;;;;;;6.67;5.90;;;23.20;99.90;;;;;;5063505;28;20448;-66
2022/05/20 07:25:36;;;;;;;7.17;5.93;;;23.30;99.90;;;;;;5069527;28;20458;-67
2022/05/20 07:28:03;;;;;;;7.53;6.27;;;23.40;99.90;;;;;;5068490;28;20534;-67
2022/05/20 07:30:30;;;;;;;6.93;6.20;;;23.50;99.90;;;;;;5065952;28;20471;-66
2022/05/20 07:32:59;;;;;;;7.60;5.73;;;23.70;99.90;;;;;;5064729;28;20500;-66
2022/05/20 07:35:26;;;;;;;9.57;6.40;;;23.80;99.90;;;;;;5062779;28;20446;-67
2022/05/20 07:37:52;;;;;;;10.80;7.00;;;23.90;99.90;;;;;;5063283;28;20443;-67
2022/05/20 07:40:21;;;;;;;6.40;5.80;;;24.00;99.90;;;;;;5067001;28;20578;-67
2022/05/20 07:42:48;;;;;;;6.33;5.73;;;24.20;99.90;;;;;;5069228;28;20446;-68
2022/05/20 07:45:15;;;;;;;7.20;6.10;;;24.40;99.90;;;;;;5067800;28;20453;-66
2022/05/20 07:47:43;;;;;;;8.33;6.90;;;24.40;99.90;;;;;;5066718;28;20496;-66
2022/05/20 07:50:12;;;;;;;7.50;6.70;;;24.60;99.90;;;;;;5067542;28;20577;-66
2022/05/20 07:55:27;;;;;;;7.20;6.50;;;24.70;99.90;;;;;;5067319;28;20414;-65
2022/05/20 07:57:55;;;;;;;8.60;6.47;;;24.80;99.90;;;;;;5073088;28;20447;-66
2022/05/20 08:00:23;;;;;;;6.63;5.60;;;25.00;99.90;;;;;;5072374;28;20490;-65
2022/05/20 08:02:53;;;;;;;6.97;6.27;;;25.10;99.90;;;;;;5072694;28;20481;-65
2022/05/20 08:05:21;;;;;;;9.47;6.40;;;25.20;99.90;;;;;;5072996;28;20446;-66
2022/05/20 08:07:49;;;;;;;6.37;5.23;;;25.40;99.90;;;;;;5070363;28;20458;-65
2022/05/20 08:10:19;;;;;;;7.93;6.10;;;25.50;99.90;;;;;;5071829;28;20465;-66
2022/05/20 08:12:47;;;;;;;13.63;5.60;;;25.60;99.90;;;;;;5067264;28;20453;-65
2022/05/20 08:15:14;;;;;;;8.70;5.87;;;25.80;99.90;;;;;;5072094;28;20480;-65
2022/05/20 08:17:43;;;;;;;7.47;5.43;;;25.90;99.90;;;;;;5072393;28;20435;-66
2022/05/20 08:20:13;;;;;;;10.90;5.63;;;26.10;99.90;;;;;;5072356;28;20487;-66
2022/05/20 08:22:42;;;;;;;7.40;6.00;;;26.20;99.90;;;;;;5071081;28;20469;-66
2022/05/20 08:25:08;;;;;;;7.17;6.03;;;26.40;99.90;;;;;;5072179;28;20842;-66
2022/05/20 08:27:35;;;;;;;7.67;5.37;;;26.50;99.90;;;;;;5070455;28;20454;-67
2022/05/20 08:30:08;;;;;;;6.53;5.50;;;26.70;99.90;;;;;;5071775;28;20471;-67
2022/05/20 08:32:35;;;;;;;7.47;5.13;;;26.80;99.90;;;;;;5071681;28;20450;-67
2022/05/20 08:35:04;;;;;;;6.13;5.47;;;26.90;99.90;;;;;;5070771;28;21188;-66
2022/05/20 08:37:33;;;;;;;8.73;5.50;;;27.00;99.90;;;;;;5070693;28;20520;-67
2022/05/20 08:40:01;;;;;;;5.63;5.13;;;27.20;99.90;;;;;;5071659;28;20487;-66
2022/05/20 08:42:32;;;;;;;7.33;5.20;;;27.20;99.90;;;;;;5072117;28;20435;-66
2022/05/20 08:44:59;;;;;;;7.40;5.63;;;27.40;99.90;;;;;;5072474;28;20487;-66
2022/05/20 08:47:32;;;;;;;5.50;5.00;;;27.40;99.90;;;;;;5072468;28;20451;-65
2022/05/20 08:50:02;;;;;;;7.90;5.60;;;27.60;99.90;;;;;;5071669;28;20524;-66
2022/05/20 08:52:29;;;;;;;6.53;5.27;;;27.80;99.90;;;;;;5070180;28;21038;-66
2022/05/20 08:54:56;;;;;;;6.77;5.43;;;27.80;99.90;;;;;;5070524;28;20489;-66
2022/05/20 08:57:28;;;;;;;11.23;5.93;;;27.80;99.90;;;;;;5071643;28;20444;-66
2022/05/20 08:59:55;;;;;;;9.80;5.73;;;28.00;99.90;;;;;;5071877;28;20588;-65
2022/05/20 09:02:22;;;;;;;7.63;5.47;;;28.10;99.90;;;;;;5072141;28;20816;-66
2022/05/20 09:04:50;;;;;;;5.03;4.40;;;28.30;99.90;;;;;;5071883;28;20458;-65
2022/05/20 09:07:19;;;;;;;6.07;5.47;;;28.50;99.90;;;;;;5070043;28;20453;-65
2022/05/20 09:09:48;;;;;;;5.20;4.70;;;28.50;99.90;;;;;;5071641;28;20531;-66
2022/05/20 09:12:28;;;;;;;6.37;5.07;;;28.50;98.30;;;;;;5070691;28;20543;-66
2022/05/20 09:17:48;;;;;;;6.07;5.47;;;28.80;96.90;;;;;;5057093;28;20925;-66
2022/05/20 09:20:18;;;;;;;7.40;5.57;;;28.90;97.50;;;;;;5071257;28;20490;-67
2022/05/20 09:22:57;;;;;;;7.43;5.20;;;29.00;96.90;;;;;;5065353;28;20451;-66
2022/05/20 09:25:27;;;;;;;9.43;5.10;;;29.10;96.90;;;;;;5067652;28;20989;-65
2022/05/20 09:28:13;;;;;;;5.03;4.27;;;29.30;94.80;;;;;;5066321;28;20931;-65
2022/05/20 09:30:43;;;;;;;8.23;4.93;;;29.50;95.50;;;;;;5070623;28;20518;-66
2022/05/20 09:33:16;;;;;;;7.53;5.47;;;29.60;93.70;;;;;;5069941;28;20478;-67
2022/05/20 09:35:48;;;;;;;8.43;4.60;;;29.80;96.00;;;;;;5064848;28;20444;-65
2022/05/20 09:38:37;;;;;;;6.47;4.03;;;29.90;92.30;;;;;;5065735;28;21159;-67
2022/05/20 09:41:13;;;;;;;7.07;5.40;;;29.90;92.20;;;;;;5066042;28;20453;-67
2022/05/20 09:43:44;;;;;;;6.40;4.40;;;29.70;92.40;;;;;;5070979;28;20418;-66
2022/05/20 09:46:33;;;;;;;4.97;4.43;;;29.60;91.90;;;;;;5070865;28;20446;-67
2022/05/20 09:49:06;;;;;;;6.60;5.10;;;29.90;90.70;;;;;;5067332;28;20471;-66
2022/05/20 09:51:38;;;;;;;6.73;5.07;;;30.20;90.30;;;;;;5067916;28;20443;-64
2022/05/20 09:54:20;;;;;;;5.07;4.57;;;30.60;90.70;;;;;;5068972;28;20576;-66
2022/05/20 09:56:57;;;;;;;7.43;5.10;;;31.20;89.40;;;;;;5067999;28;20538;-66
2022/05/20 09:59:33;;;;;;;11.60;4.77;;;31.70;85.70;;;;;;5065974;28;20478;-65
2022/05/20 10:02:05;;;;;;;6.40;4.20;;;31.80;83.20;;;;;;5067178;28;20454;-67
2022/05/20 10:04:46;;;;;;;7.73;4.70;;;32.00;82.30;;;;;;5070135;28;20435;-67
2022/05/20 10:07:20;;;;;;;7.27;4.93;;;32.30;80.70;;;;;;5069451;28;20486;-67
2022/05/20 10:09:54;;;;;;;7.83;4.63;;;32.20;80.60;;;;;;5068866;28;20517;-66
2022/05/20 10:12:28;;;;;;;8.93;5.00;;;31.90;79.00;;;;;;5067439;28;20434;-67
2022/05/20 10:15:02;;;;;;;5.43;4.67;;;31.70;79.90;;;;;;5070351;28;20534;-66
2022/05/20 10:17:45;;;;;;;9.80;5.10;;;32.00;79.70;;;;;;5071013;28;20450;-67
2022/05/20 10:20:17;;;;;;;6.50;4.40;;;32.50;79.80;;;;;;5068701;28;20491;-67
2022/05/20 10:22:53;;;;;;;6.97;5.83;;;32.70;78.60;;;;;;5069722;28;21020;-66
2022/05/20 10:25:29;;;;;;;8.60;5.00;;;33.00;77.70;;;;;;5069958;28;20819;-66
2022/05/20 10:28:02;;;;;;;5.60;5.10;;;33.50;77.30;;;;;;5067519;28;20832;-66
2022/05/20 10:33:24;;;;;;;5.00;4.10;;;33.80;76.90;;;;;;5067432;28;20439;-67
2022/05/20 10:36:07;;;;;;;5.53;4.93;;;33.10;75.00;;;;;;5066346;28;20454;-67
2022/05/20 10:38:58;;;;;;;7.30;4.70;;;32.80;73.90;;;;;;5068051;28;20467;-67
2022/05/20 10:41:35;;;;;;;6.73;4.83;;;32.70;76.10;;;;;;5065905;28;20979;-67
2022/05/20 10:50:08;;;;;;;5.43;4.93;;;32.30;74.60;;;;;;5065103;28;20454;-67
2022/05/20 10:53:06;;;;;;;5.90;4.70;;;32.50;75.50;;;;;;5069654;28;20818;-67
2022/05/20 10:55:59;;;;;;;5.80;5.17;;;33.30;73.40;;;;;;5067286;28;20455;-67
2022/05/20 10:58:59;;;;;;;6.63;4.23;;;33.80;70.60;;;;;;5067998;28;21144;-67
2022/05/20 11:01:36;;;;;;;6.23;4.30;;;34.40;68.70;;;;;;5067165;28;20450;-66
2022/05/20 11:04:50;;;;;;;7.20;4.63;;;34.30;68.20;;;;;;5069074;28;20451;-66
2022/05/20 11:07:57;;;;;;;7.17;4.83;;;34.50;71.60;;;;;;5063484;28;20445;-67
2022/05/20 11:10:56;;;;;;;6.00;3.60;;;35.00;64.30;;;;;;5002715;28;20476;-66
2022/05/20 11:13:41;;;;;;;6.50;4.57;;;34.80;60.40;;;;;;5002202;28;20543;-67
2022/05/20 11:16:24;;;;;;;5.53;4.30;;;34.20;62.70;;;;;;5052058;28;20531;-66
2022/05/20 11:19:14;;;;;;;6.93;4.70;;;33.90;62.80;;;;;;5062377;28;20988;-67
2022/05/20 11:22:07;;;;;;;5.67;4.47;;;33.90;60.00;;;;;;5062553;28;20555;-66
2022/05/20 11:25:16;;;;;;;6.60;5.10;;;33.90;67.80;;;;;;5064312;28;20447;-66
2022/05/20 11:28:02;;;;;;;5.70;4.50;;;33.70;68.40;;;;;;5044812;28;21012;-67
2022/05/20 11:30:40;;;;;;;6.50;4.83;;;33.90;68.30;;;;;;5069829;28;20466;-66
2022/05/20 11:33:30;;;;;;;5.17;4.27;;;34.30;65.70;;;;;;5072913;28;20443;-67
2022/05/20 11:36:15;;;;;;;7.47;4.53;;;34.70;63.70;;;;;;5053485;28;20452;-66
2022/05/20 11:39:02;;;;;;;7.73;4.57;;;35.00;60.90;;;;;;5066377;28;21039;-67
2022/05/20 11:41:36;;;;;;;6.40;4.53;;;35.20;60.70;;;;;;5071373;28;20486;-67
2022/05/20 11:44:26;;;;;;;5.60;4.37;;;35.90;63.40;;;;;;5066481;28;20763;-67
2022/05/20 11:47:17;;;;;;;6.47;4.37;;;36.20;57.40;;;;;;5066078;28;20533;-67
2022/05/20 11:50:02;;;;;;;5.90;4.13;;;35.20;57.30;;;;;;5069124;28;20470;-66
2022/05/20 11:52:45;;;;;;;5.50;5.00;;;35.60;59.00;;;;;;5065643;28;20844;-66
2022/05/20 11:55:19;;;;;;;7.90;5.70;;;35.40;61.60;;;;;;5069642;28;20449;-66
2022/05/20 11:57:50;;;;;;;7.33;5.57;;;35.00;68.80;;;;;;5065293;28;20454;-65
2022/05/20 12:00:21;;;;;;;9.37;6.37;;;33.90;71.60;;;;;;5071088;28;20490;-65
2022/05/20 12:02:51;;;;;;;7.60;5.67;;;32.80;75.30;;;;;;5071659;28;20451;-66
2022/05/20 12:05:23;;;;;;;9.13;5.97;;;31.90;78.40;;;;;;5071889;28;20451;-67
2022/05/20 12:07:50;;;;;;;8.67;6.27;;;31.70;79.50;;;;;;5071904;28;20443;-66
2022/05/20 12:10:43;;;;;;;11.67;6.40;;;31.70;78.60;;;;;;5070934;28;20991;-67
2022/05/20 12:13:14;;;;;;;8.13;5.80;;;32.30;81.00;;;;;;5069406;28;20444;-66
2022/05/20 12:15:44;;;;;;;7.70;5.60;;;33.10;75.60;;;;;;5068298;28;20475;-67
2022/05/20 12:24:15;;;;;;;7.67;5.07;;;36.00;69.20;;;;;;5067480;28;20451;-67
2022/05/20 12:26:48;;;;;;;7.33;4.90;;;36.60;69.90;;;;;;5065589;28;21019;-68
2022/05/20 12:30:00;;;;;;;7.90;5.60;;;37.20;64.90;;;;;;5071685;28;20833;-67
2022/05/20 12:32:44;;;;;;;7.00;5.00;;;37.60;59.40;;;;;;5069522;28;20440;-66
2022/05/20 12:35:14;;;;;;;6.33;4.87;;;38.50;63.70;;;;;;5068084;28;20827;-66
2022/05/20 12:38:22;;;;;;;6.70;5.03;;;38.80;57.70;;;;;;5072080;28;20496;-66
2022/05/20 12:40:55;;;;;;;7.73;4.30;;;39.50;61.20;;;;;;5067502;28;20483;-66
2022/05/20 12:43:50;;;;;;;8.00;4.70;;;40.30;59.90;;;;;;5071647;28;20439;-67
2022/05/20 12:46:52;;;;;;;5.10;4.30;;;40.90;56.40;;;;;;5072081;28;20463;-68
2022/05/20 12:49:21;;;;;;;5.63;3.60;;;40.90;50.10;;;;;;5003822;28;20465;-67
2022/05/20 12:51:51;;;;;;;6.90;3.70;;;40.30;47.80;;;;;;5002794;28;20588;-68
2022/05/20 12:54:21;;;;;;;8.53;3.67;;;40.10;48.30;;;;;;5036343;28;20454;-68
2022/05/20 12:56:53;;;;;;;6.27;3.97;;;39.60;47.70;;;;;;5069696;28;20530;-67
2022/05/20 12:59:24;;;;;;;8.80;3.93;;;39.40;49.00;;;;;;5070707;28;20521;-68
2022/05/20 13:01:57;;;;;;;9.23;4.13;;;39.40;48.20;;;;;;5070273;28;20482;-66
2022/05/20 13:04:28;;;;;;;6.90;4.07;;;39.60;49.70;;;;;;5071062;28;20443;-65
2022/05/20 13:06:56;;;;;;;4.97;3.50;;;40.20;48.70;;;;;;5070792;28;20537;-66
2022/05/20 13:09:26;;;;;;;9.13;4.23;;;40.00;46.70;;;;;;5070638;28;20861;-67
2022/05/20 13:11:53;;;;;;;8.73;4.50;;;38.60;46.20;;;;;;5070977;28;20988;-66
2022/05/20 13:14:29;;;;;;;10.60;3.93;;;38.10;49.40;;;;;;5070519;28;20546;-68
2022/05/20 13:16:56;;;;;;;9.00;4.37;;;37.20;48.30;;;;;;5071368;28;20447;-67
2022/05/20 13:19:30;;;;;;;14.63;5.33;;;36.90;49.50;;;;;;5071108;28;20526;-67
2022/05/20 13:22:02;;;;;;;8.47;3.90;;;37.30;49.60;;;;;;5070726;28;20485;-68
2022/05/20 13:24:33;;;;;;;6.20;3.90;;;38.30;48.80;;;;;;5069116;28;20849;-67
2022/05/20 13:27:09;;;;;;;6.27;3.90;;;38.90;46.50;;;;;;5069815;28;20487;-68
2022/05/20 13:29:38;;;;;;;11.27;4.37;;;39.00;47.20;;;;;;5069943;28;20466;-68
2022/05/20 13:32:13;;;;;;;7.93;3.70;;;39.00;47.30;;;;;;5070366;28;20443;-66
2022/05/20 13:34:40;;;;;;;6.60;4.00;;;39.30;46.10;;;;;;5070703;28;20447;-68
2022/05/20 13:37:08;;;;;;;7.00;3.50;;;39.20;44.30;;;;;;5069546;28;20452;-67
2022/05/20 13:39:35;;;;;;;6.00;3.63;;;38.90;42.60;;;;;;5068520;28;20471;-66
2022/05/20 13:42:08;;;;;;;7.90;3.80;;;38.80;44.20;;;;;;5070041;28;20565;-67